createdAt,value
2022-08-22T14:03:59.468Z,101482.62
2022-08-22T14:04:34.734Z,101481.30
2022-08-22T14:05:04.510Z,101483.16
2022-08-22T14:05:34.512Z,101480.17
2022-08-22T14:06:32.825Z,101480.45
2022-08-22T14:06:41.534Z,101477.56
2022-08-22T14:07:14.231Z,101477.84
2022-08-22T14:07:44.292Z,101480.79
2022-08-22T14:08:14.283Z,101475.20
2022-08-22T14:08:45.782Z,101475.75
2022-08-22T14:09:17.430Z,101480.95
2022-08-22T14:09:54.230Z,101479.11
2022-08-22T14:10:24.558Z,101479.26
2022-08-22T14:10:55.238Z,101472.22
2022-08-22T14:11:27.519Z,101481.81
2022-08-22T14:11:58.263Z,101478.55
2022-08-22T14:12:29.072Z,101483.09
2022-08-22T14:13:03.593Z,101480.86
2022-08-22T14:13:33.645Z,101484.02
2022-08-22T14:14:08.307Z,101478.73
2022-08-22T14:14:38.842Z,101476.35
2022-08-22T14:15:08.818Z,101474.66
2022-08-22T14:15:44.637Z,101472.58
2022-08-22T14:16:15.029Z,101472.23
2022-08-22T14:16:45.147Z,101474.55
2022-08-22T14:17:15.356Z,101473.83
2022-08-22T14:17:48.413Z,101475.75
2022-08-22T14:18:19.959Z,101475.70
2022-08-22T14:18:51.117Z,101475.50
2022-08-22T14:19:22.867Z,101470.88
2022-08-22T14:19:58.798Z,101469.73
2022-08-22T14:20:32.900Z,101475.09
2022-08-22T14:21:03.879Z,101476.94
2022-08-22T14:21:40.881Z,101475.76
2022-08-22T14:22:14.352Z,101473.81
2022-08-22T14:22:44.589Z,101475.59
2022-08-22T14:23:14.613Z,101473.34
2022-08-22T14:23:44.934Z,101473.37
2022-08-22T14:24:15.816Z,101486.34
2022-08-22T14:24:49.014Z,101479.34
2022-08-22T14:25:23.943Z,101479.14
2022-08-22T14:25:54.910Z,101479.89
2022-08-22T14:26:32.842Z,101476.83
2022-08-22T14:26:59.830Z,101477.93
2022-08-22T14:27:34.768Z,101471.90
2022-08-22T14:28:06.538Z,101474.05
2022-08-22T14:28:39.511Z,101476.07
2022-08-22T14:29:10.204Z,101475.02
2022-08-22T14:29:41.518Z,101472.73
2022-08-22T14:30:11.736Z,101470.83
2022-08-22T14:30:41.734Z,101471.91
2022-08-22T14:31:13.785Z,101463.20
2022-08-22T14:31:43.908Z,101467.88
2022-08-22T14:32:14.178Z,101470.42
2022-08-22T14:32:45.635Z,101476.80
2022-08-22T14:33:16.358Z,101476.81
2022-08-22T14:33:46.343Z,101476.49
2022-08-22T14:34:17.282Z,101474.69
2022-08-22T14:34:49.354Z,101476.38
2022-08-22T14:35:23.431Z,101476.28
2022-08-22T14:35:54.274Z,101472.63
2022-08-22T14:36:24.276Z,101479.34
2022-08-22T14:36:55.371Z,101480.77
2022-08-22T14:37:25.360Z,101474.87
2022-08-22T14:37:56.993Z,101473.09
2022-08-22T14:38:30.269Z,101472.69
2022-08-22T14:39:00.577Z,101475.30
2022-08-22T14:39:30.561Z,101470.37
2022-08-22T14:40:01.214Z,101476.94
2022-08-22T14:40:31.396Z,101471.05
2022-08-22T14:41:01.376Z,101473.56
2022-08-22T14:41:52.333Z,101473.95
2022-08-22T14:42:10.095Z,101478.36
2022-08-22T14:42:44.424Z,101474.01
2022-08-22T14:43:14.561Z,101472.97
2022-08-22T14:43:49.552Z,101471.51
2022-08-22T14:44:19.717Z,101475.23
2022-08-22T14:44:51.361Z,101470.89
2022-08-22T14:45:22.042Z,101467.11
2022-08-22T14:45:53.654Z,101471.86
2022-08-22T14:46:23.749Z,101468.42
2022-08-22T14:46:56.807Z,101470.38
2022-08-22T14:47:54.481Z,101463.81
2022-08-22T14:48:29.508Z,101466.14
2022-08-22T14:48:39.330Z,101467.72
2022-08-22T14:49:10.942Z,101469.32
2022-08-22T14:49:43.012Z,101467.70
2022-08-22T14:50:13.051Z,101468.89
2022-08-22T14:50:43.051Z,101467.02
2022-08-22T14:51:13.331Z,101463.88
2022-08-22T14:51:43.311Z,101464.92
2022-08-22T14:52:19.443Z,101462.68
2022-08-22T14:52:48.253Z,101460.52
2022-08-22T14:53:18.263Z,101465.00
2022-08-22T14:53:48.291Z,101460.08
2022-08-22T14:54:21.312Z,101464.66
2022-08-22T14:54:51.871Z,101462.81
2022-08-22T14:55:21.843Z,101462.92
2022-08-22T14:55:51.819Z,101458.84
2022-08-22T14:56:23.520Z,101457.05
2022-08-22T14:56:54.159Z,101461.92
2022-08-22T14:57:24.220Z,101462.27
2022-08-22T14:57:54.260Z,101458.75
2022-08-22T14:58:26.425Z,101458.70
2022-08-22T14:58:57.809Z,101460.20
2022-08-22T14:59:27.812Z,101458.02
2022-08-22T14:59:59.559Z,101456.86
2022-08-22T15:00:29.554Z,101460.42
2022-08-22T15:00:59.534Z,101454.88
2022-08-22T15:01:33.099Z,101456.78
2022-08-22T15:02:03.302Z,101454.42
2022-08-22T15:02:33.408Z,101454.62
2022-08-22T15:03:03.401Z,101455.59
2022-08-22T15:03:33.494Z,101454.80
2022-08-22T15:04:03.473Z,101453.97
2022-08-22T15:04:33.479Z,101451.19
2022-08-22T15:05:05.454Z,101455.73
2022-08-22T15:05:37.961Z,101454.75
2022-08-22T15:06:11.006Z,101457.23
2022-08-22T15:06:47.745Z,101454.83
2022-08-22T15:07:15.983Z,101460.38
2022-08-22T15:07:47.027Z,101462.14
2022-08-22T15:08:19.562Z,101454.20
2022-08-22T15:08:54.197Z,101459.16
2022-08-22T15:09:24.206Z,101461.75
2022-08-22T15:09:54.224Z,101456.45
2022-08-22T15:10:24.225Z,101456.25
2022-08-22T15:10:54.210Z,101455.38
2022-08-22T15:11:24.487Z,101458.23
2022-08-22T15:11:55.616Z,101453.71
2022-08-22T15:12:26.433Z,101456.22
2022-08-22T15:12:56.416Z,101456.36
2022-08-22T15:13:26.413Z,101456.35
2022-08-22T15:13:59.712Z,101456.52
2022-08-22T15:14:30.462Z,101453.36
2022-08-22T15:15:01.039Z,101455.69
2022-08-22T15:15:31.653Z,101451.45
2022-08-22T15:16:08.043Z,101452.67
2022-08-22T15:16:36.879Z,101452.78
2022-08-22T15:17:11.145Z,101449.98
2022-08-22T15:17:44.039Z,101450.93
2022-08-22T15:18:14.683Z,101451.58
2022-08-22T15:18:51.773Z,101452.80
2022-08-22T15:19:19.931Z,101459.11
2022-08-22T15:19:52.110Z,101454.11
2022-08-22T15:20:22.802Z,101451.37
2022-08-22T15:20:57.279Z,101451.88
2022-08-22T15:21:28.599Z,101450.62
2022-08-22T15:21:58.870Z,101453.36
2022-08-22T15:22:29.250Z,101451.61
2022-08-22T15:23:00.166Z,101452.43
2022-08-22T15:23:30.855Z,101454.76
2022-08-22T15:24:00.903Z,101457.95
2022-08-22T15:24:31.498Z,101451.88
2022-08-22T15:25:01.657Z,101458.68
2022-08-22T15:25:31.843Z,101458.14
2022-08-22T15:26:03.727Z,101455.69
2022-08-22T15:26:33.793Z,101465.53
2022-08-22T15:27:06.632Z,101461.62
2022-08-22T15:27:37.004Z,101458.55
2022-08-22T15:28:07.638Z,101456.83
2022-08-22T15:28:52.294Z,101463.19
2022-08-22T15:29:17.492Z,101463.34
2022-08-22T15:29:47.817Z,101460.80
2022-08-22T15:30:20.483Z,101455.11
2022-08-22T15:30:54.033Z,101453.66
2022-08-22T15:31:24.203Z,101451.51
2022-08-22T15:31:54.186Z,101460.21
2022-08-22T15:32:26.611Z,101457.04
2022-08-22T15:32:56.807Z,101461.12
2022-08-22T15:33:27.055Z,101452.67
2022-08-22T15:33:59.471Z,101452.95
2022-08-22T15:34:29.455Z,101456.77
2022-08-22T15:35:00.061Z,101459.70
2022-08-22T15:35:30.216Z,101459.53
2022-08-22T15:36:00.199Z,101453.37
2022-08-22T15:36:30.184Z,101453.95
2022-08-22T15:37:00.257Z,101459.94
2022-08-22T15:37:35.181Z,101453.95
2022-08-22T15:38:05.506Z,101456.91
2022-08-22T15:38:36.675Z,101447.98
2022-08-22T15:39:06.680Z,101454.73
2022-08-22T15:39:38.002Z,101454.50
2022-08-22T15:40:10.195Z,101449.86
2022-08-22T15:40:41.798Z,101450.52
2022-08-22T15:41:12.632Z,101455.01
2022-08-22T15:41:42.611Z,101448.32
2022-08-22T15:42:13.679Z,101448.75
2022-08-22T15:42:43.661Z,101451.01
2022-08-22T15:43:13.679Z,101447.17
2022-08-22T15:43:44.944Z,101449.40
2022-08-22T15:44:32.441Z,101446.81
2022-08-22T15:44:50.879Z,101447.92
2022-08-22T15:45:20.864Z,101447.84
2022-08-22T15:45:52.328Z,101448.73
2022-08-22T15:46:23.107Z,101448.55
2022-08-22T15:46:53.096Z,101443.69
2022-08-22T15:47:25.523Z,101442.83
2022-08-22T15:47:57.723Z,101441.61
2022-08-22T15:48:27.711Z,101445.67
2022-08-22T15:48:57.692Z,101446.81
2022-08-22T15:49:27.689Z,101445.61
2022-08-22T15:49:58.245Z,101441.09
2022-08-22T15:50:28.428Z,101435.26
2022-08-22T15:50:58.404Z,101441.86
2022-08-22T15:51:28.406Z,101441.49
2022-08-22T15:51:58.410Z,101433.01
2022-08-22T15:52:28.553Z,101436.48
2022-08-22T15:52:59.719Z,101433.16
2022-08-22T15:53:34.072Z,101432.11
2022-08-22T15:54:04.117Z,101433.95
2022-08-22T15:54:43.864Z,101433.22
2022-08-22T15:55:13.954Z,101435.03
2022-08-22T15:55:44.166Z,101433.03
2022-08-22T15:56:15.313Z,101431.04
2022-08-22T15:56:45.460Z,101433.16
2022-08-22T15:57:16.760Z,101431.66
2022-08-22T15:57:46.771Z,101430.66
2022-08-22T15:58:20.978Z,101434.30
2022-08-22T15:58:50.984Z,101435.61
2022-08-22T15:59:21.436Z,101437.42
2022-08-22T15:59:54.466Z,101434.23
2022-08-22T16:00:24.684Z,101435.89
2022-08-22T16:00:58.152Z,101430.91
2022-08-22T16:01:28.204Z,101431.87
2022-08-22T16:01:58.482Z,101434.55
2022-08-22T16:02:28.492Z,101430.05
2022-08-22T16:02:58.986Z,101432.18
2022-08-22T16:03:29.922Z,101431.02
2022-08-22T16:04:00.344Z,101429.19
2022-08-22T16:04:30.330Z,101431.34
2022-08-22T16:05:00.316Z,101429.36
2022-08-22T16:05:30.314Z,101429.16
2022-08-22T16:06:00.290Z,101427.31
2022-08-22T16:06:30.266Z,101427.81
2022-08-22T16:07:00.262Z,101425.97
2022-08-22T16:07:30.595Z,101425.66
2022-08-22T16:08:00.576Z,101425.30
2022-08-22T16:08:32.686Z,101427.80
2022-08-22T16:09:03.070Z,101425.45
2022-08-22T16:09:33.065Z,101426.14
2022-08-22T16:10:03.046Z,101422.48
2022-08-22T16:10:33.055Z,101422.64
2022-08-22T16:11:03.032Z,101419.94
2022-08-22T16:11:33.702Z,101423.59
2022-08-22T16:12:03.810Z,101424.91
2022-08-22T16:12:33.794Z,101426.57
2022-08-22T16:13:03.772Z,101425.05
2022-08-22T16:13:33.765Z,101424.41
2022-08-22T16:14:03.760Z,101423.04
2022-08-22T16:14:37.001Z,101423.55
2022-08-22T16:15:06.998Z,101424.03
2022-08-22T16:15:36.977Z,101420.88
2022-08-22T16:16:06.963Z,101416.58
2022-08-22T16:16:36.950Z,101421.53
2022-08-22T16:17:06.929Z,101417.06
2022-08-22T16:17:36.914Z,101419.77
2022-08-22T16:18:06.900Z,101418.89
2022-08-22T16:18:36.896Z,101424.36
2022-08-22T16:19:06.885Z,101424.05
2022-08-22T16:19:36.883Z,101419.60
2022-08-22T16:20:06.878Z,101420.41
2022-08-22T16:20:39.094Z,101415.45
2022-08-22T16:21:09.107Z,101419.08
2022-08-22T16:21:39.094Z,101416.23
2022-08-22T16:22:09.099Z,101421.88
2022-08-22T16:22:39.076Z,101418.39
2022-08-22T16:23:09.058Z,101419.05
2022-08-22T16:23:39.043Z,101421.20
2022-08-22T16:24:09.022Z,101422.03
2022-08-22T16:24:39.001Z,101421.18
2022-08-22T16:25:10.659Z,101418.51
2022-08-22T16:25:40.944Z,101418.86
2022-08-22T16:26:10.924Z,101417.84
2022-08-22T16:26:40.909Z,101422.79
2022-08-22T16:27:10.904Z,101420.16
2022-08-22T16:27:40.907Z,101418.97
2022-08-22T16:28:10.921Z,101419.95
2022-08-22T16:28:57.840Z,101419.09
2022-08-22T16:29:18.304Z,101421.56
2022-08-22T16:29:48.357Z,101418.23
2022-08-22T16:30:18.337Z,101416.92
2022-08-22T16:30:48.334Z,101415.59
2022-08-22T16:31:22.378Z,101413.31
2022-08-22T16:31:52.353Z,101417.78
2022-08-22T16:32:22.349Z,101418.97
2022-08-22T16:32:52.337Z,101418.45
2022-08-22T16:33:22.311Z,101417.44
2022-08-22T16:33:52.318Z,101414.33
2022-08-22T16:34:22.300Z,101418.95
2022-08-22T16:34:52.277Z,101418.62
2022-08-22T16:35:22.272Z,101415.30
2022-08-22T16:35:52.265Z,101415.82
2022-08-22T16:36:22.254Z,101415.64
2022-08-22T16:36:52.247Z,101417.48
2022-08-22T16:37:22.239Z,101414.80
2022-08-22T16:37:52.239Z,101414.48
2022-08-22T16:38:24.027Z,101418.79
2022-08-22T16:38:54.013Z,101418.28
2022-08-22T16:39:24.016Z,101413.00
2022-08-22T16:39:54.035Z,101415.96
2022-08-22T16:40:24.208Z,101415.62
2022-08-22T16:40:54.248Z,101420.78
2022-08-22T16:41:24.250Z,101414.30
2022-08-22T16:41:54.235Z,101411.83
2022-08-22T16:42:24.234Z,101415.98
2022-08-22T16:42:54.218Z,101414.30
2022-08-22T16:43:24.206Z,101412.31
2022-08-22T16:43:59.026Z,101413.47
2022-08-22T16:44:29.023Z,101412.33
2022-08-22T16:44:59.005Z,101414.16
2022-08-22T16:45:28.987Z,101416.12
2022-08-22T16:45:58.970Z,101411.00
2022-08-22T16:46:33.253Z,101416.47
2022-08-22T16:47:03.907Z,101410.67
2022-08-22T16:47:33.896Z,101411.31
2022-08-22T16:48:04.080Z,101414.78
2022-08-22T16:48:34.159Z,101411.67
2022-08-22T16:49:04.173Z,101414.98
2022-08-22T16:49:34.155Z,101412.12
2022-08-22T16:50:04.133Z,101417.25
2022-08-22T16:50:34.117Z,101414.09
2022-08-22T16:51:04.126Z,101414.59
2022-08-22T16:51:34.130Z,101414.80
2022-08-22T16:52:04.113Z,101412.31
2022-08-22T16:52:34.097Z,101409.32
2022-08-22T16:53:04.076Z,101415.96
2022-08-22T16:53:34.054Z,101415.66
2022-08-22T16:54:04.036Z,101413.83
2022-08-22T16:54:34.021Z,101416.80
2022-08-22T16:55:04.012Z,101410.17
2022-08-22T16:55:33.996Z,101411.81
2022-08-22T16:56:03.968Z,101414.98
2022-08-22T16:56:33.955Z,101411.34
2022-08-22T16:57:03.949Z,101417.48
2022-08-22T16:57:33.934Z,101418.79
2022-08-22T16:58:07.252Z,101417.47
2022-08-22T16:58:56.208Z,101419.14
2022-08-22T16:59:23.059Z,101417.99
2022-08-22T16:59:47.146Z,101415.46
2022-08-22T17:00:22.298Z,101419.47
2022-08-22T17:00:52.065Z,101420.30
2022-08-22T17:01:22.100Z,101419.97
2022-08-22T17:01:52.169Z,101419.30
2022-08-22T17:02:22.203Z,101420.12
2022-08-22T17:02:52.189Z,101418.30
2022-08-22T17:03:22.171Z,101419.14
2022-08-22T17:03:52.165Z,101422.12
2022-08-22T17:04:22.160Z,101418.32
2022-08-22T17:04:52.149Z,101418.48
2022-08-22T17:05:22.136Z,101415.67
2022-08-22T17:05:52.127Z,101417.81
2022-08-22T17:06:22.111Z,101416.31
2022-08-22T17:06:52.105Z,101416.83
2022-08-22T17:07:22.113Z,101417.16
2022-08-22T17:07:52.096Z,101417.50
2022-08-22T17:08:22.082Z,101418.82
2022-08-22T17:08:52.106Z,101421.78
2022-08-22T17:09:22.091Z,101418.82
2022-08-22T17:09:52.088Z,101419.16
2022-08-22T17:10:22.070Z,101421.30
2022-08-22T17:10:52.054Z,101419.48
2022-08-22T17:11:22.035Z,101422.62
2022-08-22T17:11:52.016Z,101418.16
2022-08-22T17:12:22.001Z,101422.30
2022-08-22T17:12:51.980Z,101421.47
2022-08-22T17:13:21.970Z,101418.67
2022-08-22T17:13:56.579Z,101420.48
2022-08-22T17:14:26.562Z,101420.98
2022-08-22T17:14:56.550Z,101423.66
2022-08-22T17:15:26.562Z,101419.67
2022-08-22T17:15:56.543Z,101421.66
2022-08-22T17:16:26.525Z,101420.83
2022-08-22T17:16:56.504Z,101421.84
2022-08-22T17:17:26.491Z,101422.00
2022-08-22T17:17:56.551Z,101419.19
2022-08-22T17:18:26.601Z,101424.30
2022-08-22T17:18:56.582Z,101427.16
2022-08-22T17:19:26.556Z,101426.14
2022-08-22T17:19:56.543Z,101425.31
2022-08-22T17:20:26.527Z,101426.48
2022-08-22T17:20:56.501Z,101421.69
2022-08-22T17:21:26.479Z,101426.97
2022-08-22T17:21:56.459Z,101423.84
2022-08-22T17:22:29.041Z,101423.16
2022-08-22T17:22:59.257Z,101427.30
2022-08-22T17:23:30.006Z,101427.82
2022-08-22T17:23:59.984Z,101425.81
2022-08-22T17:24:31.873Z,101427.83
2022-08-22T17:25:03.456Z,101423.17
2022-08-22T17:25:33.457Z,101423.52
2022-08-22T17:26:03.449Z,101425.67
2022-08-22T17:26:33.477Z,101424.66
2022-08-22T17:27:03.459Z,101430.30
2022-08-22T17:27:33.442Z,101426.83
2022-08-22T17:28:03.439Z,101425.85
2022-08-22T17:28:34.477Z,101429.14
2022-08-22T17:29:04.485Z,101426.98
2022-08-22T17:29:34.481Z,101427.66
2022-08-22T17:30:04.551Z,101428.83
2022-08-22T17:30:34.568Z,101423.86
2022-08-22T17:31:04.550Z,101427.18
2022-08-22T17:31:34.520Z,101429.00
2022-08-22T17:32:04.502Z,101431.82
2022-08-22T17:32:34.479Z,101428.33
2022-08-22T17:33:04.460Z,101427.34
2022-08-22T17:33:34.468Z,101425.84
2022-08-22T17:34:05.228Z,101424.36
2022-08-22T17:34:35.230Z,101424.86
2022-08-22T17:35:05.231Z,101425.22
2022-08-22T17:35:35.218Z,101427.67
2022-08-22T17:36:05.191Z,101427.69
2022-08-22T17:36:36.191Z,101429.39
2022-08-22T17:37:06.174Z,101429.84
2022-08-22T17:37:36.198Z,101429.89
2022-08-22T17:38:06.184Z,101426.71
2022-08-22T17:38:36.181Z,101426.38
2022-08-22T17:39:06.158Z,101426.58
2022-08-22T17:39:36.139Z,101426.25
2022-08-22T17:40:06.145Z,101426.57
2022-08-22T17:40:36.190Z,101426.59
2022-08-22T17:41:06.190Z,101425.75
2022-08-22T17:41:36.193Z,101425.77
2022-08-22T17:42:06.175Z,101429.89
2022-08-22T17:42:36.159Z,101425.44
2022-08-22T17:43:06.147Z,101428.41
2022-08-22T17:43:48.922Z,101433.05
2022-08-22T17:44:11.074Z,101425.30
2022-08-22T17:44:41.055Z,101427.24
2022-08-22T17:45:11.037Z,101430.91
2022-08-22T17:45:41.017Z,101431.25
2022-08-22T17:46:13.244Z,101431.09
2022-08-22T17:46:43.563Z,101427.45
2022-08-22T17:47:13.546Z,101428.93
2022-08-22T17:47:43.562Z,101430.92
2022-08-22T17:48:13.558Z,101429.30
2022-08-22T17:48:43.537Z,101428.13
2022-08-22T17:49:13.518Z,101427.47
2022-08-22T17:49:45.099Z,101432.62
2022-08-22T17:50:15.347Z,101431.59
2022-08-22T17:50:45.341Z,101429.29
2022-08-22T17:51:15.337Z,101427.20
2022-08-22T17:51:45.314Z,101429.64
2022-08-22T17:52:15.288Z,101428.30
2022-08-22T17:52:45.271Z,101429.52
2022-08-22T17:53:16.085Z,101426.01
2022-08-22T17:53:46.671Z,101421.72
2022-08-22T17:54:16.649Z,101426.36
2022-08-22T17:54:46.626Z,101427.37
2022-08-22T17:55:16.600Z,101425.05
2022-08-22T17:55:46.597Z,101426.22
2022-08-22T17:56:16.578Z,101425.22
2022-08-22T17:56:46.567Z,101425.22
2022-08-22T17:57:20.070Z,101428.70
2022-08-22T17:57:50.055Z,101429.84
2022-08-22T17:58:37.903Z,101428.54
2022-08-22T17:58:54.964Z,101429.55
2022-08-22T17:59:24.961Z,101420.94
2022-08-22T17:59:54.972Z,101428.72
2022-08-22T18:00:25.056Z,101425.25
2022-08-22T18:00:55.086Z,101429.54
2022-08-22T18:01:25.240Z,101427.37
2022-08-22T18:01:55.247Z,101430.02
2022-08-22T18:02:25.224Z,101426.41
2022-08-22T18:02:55.221Z,101430.55
2022-08-22T18:03:25.198Z,101429.55
2022-08-22T18:03:55.195Z,101430.88
2022-08-22T18:04:25.187Z,101430.38
2022-08-22T18:04:55.479Z,101429.40
2022-08-22T18:05:25.474Z,101427.08
2022-08-22T18:05:55.446Z,101435.54
2022-08-22T18:06:25.434Z,101430.08
2022-08-22T18:06:56.431Z,101432.39
2022-08-22T18:07:26.509Z,101430.42
2022-08-22T18:07:56.484Z,101433.73
2022-08-22T18:09:16.775Z,101435.27
2022-08-22T18:09:36.343Z,101441.39
2022-08-22T18:10:06.351Z,101435.45
2022-08-22T18:10:36.332Z,101435.45
2022-08-22T18:11:06.306Z,101436.28
2022-08-22T18:11:38.948Z,101436.28
2022-08-22T18:12:10.336Z,101437.94
2022-08-22T18:12:40.332Z,101435.78
2022-08-22T18:13:10.331Z,101440.76
2022-08-22T18:13:40.317Z,101432.98
2022-08-22T18:14:10.331Z,101437.64
2022-08-22T18:14:40.310Z,101442.08
2022-08-22T18:15:10.298Z,101441.78
2022-08-22T18:15:40.273Z,101440.44
2022-08-22T18:16:10.265Z,101438.93
2022-08-22T18:16:40.247Z,101441.55
2022-08-22T18:17:10.231Z,101440.42
2022-08-22T18:17:40.225Z,101444.91
2022-08-22T18:18:10.204Z,101441.62
2022-08-22T18:18:40.180Z,101441.28
2022-08-22T18:19:10.162Z,101441.42
2022-08-22T18:19:40.148Z,101440.96
2022-08-22T18:20:10.134Z,101439.47
2022-08-22T18:20:40.116Z,101443.12
2022-08-22T18:21:10.095Z,101442.95
2022-08-22T18:21:40.076Z,101443.94
2022-08-22T18:22:10.072Z,101443.80
2022-08-22T18:22:40.853Z,101444.15
2022-08-22T18:23:21.562Z,101444.65
2022-08-22T18:23:45.783Z,101447.61
2022-08-22T18:24:18.981Z,101451.78
2022-08-22T18:24:50.250Z,101449.45
2022-08-22T18:25:20.324Z,101447.62
2022-08-22T18:25:50.321Z,101452.64
2022-08-22T18:26:21.284Z,101448.48
2022-08-22T18:26:54.044Z,101454.45
2022-08-22T18:27:34.883Z,101464.08
2022-08-22T18:27:59.133Z,101455.62
2022-08-22T18:28:29.199Z,101456.44
2022-08-22T18:28:59.195Z,101452.83
2022-08-22T18:29:29.180Z,101456.33
2022-08-22T18:29:59.158Z,101453.68
2022-08-22T18:30:29.146Z,101452.66
2022-08-22T18:30:59.974Z,101457.16
2022-08-22T18:31:29.956Z,101456.48
2022-08-22T18:31:59.930Z,101462.48
2022-08-22T18:32:29.913Z,101462.12
2022-08-22T18:33:02.527Z,101456.36
2022-08-22T18:33:34.428Z,101464.00
2022-08-22T18:34:05.076Z,101462.35
2022-08-22T18:34:40.708Z,101461.86
2022-08-22T18:35:09.996Z,101467.65
2022-08-22T18:35:40.604Z,101463.53
2022-08-22T18:36:10.589Z,101464.67
2022-08-22T18:36:40.574Z,101467.16
2022-08-22T18:37:11.946Z,101467.36
2022-08-22T18:37:41.929Z,101464.69
2022-08-22T18:38:19.438Z,101466.86
2022-08-22T18:38:48.037Z,101468.52
2022-08-22T18:39:18.012Z,101465.87
2022-08-22T18:39:48.085Z,101466.68
2022-08-22T18:40:18.170Z,101465.39
2022-08-22T18:40:49.865Z,101469.05
2022-08-22T18:41:20.412Z,101465.08
2022-08-22T18:41:50.387Z,101469.88
2022-08-22T18:42:20.377Z,101467.69
2022-08-22T18:42:50.359Z,101468.19
2022-08-22T18:43:20.386Z,101470.38
2022-08-22T18:43:50.372Z,101469.89
2022-08-22T18:44:20.366Z,101467.25
2022-08-22T18:44:50.348Z,101468.89
2022-08-22T18:45:20.345Z,101471.56
2022-08-22T18:45:50.343Z,101471.07
2022-08-22T18:46:20.330Z,101470.59
2022-08-22T18:46:51.994Z,101470.40
2022-08-22T18:47:22.146Z,101473.09
2022-08-22T18:47:52.124Z,101474.89
2022-08-22T18:48:22.116Z,101472.91
2022-08-22T18:49:13.965Z,101476.22
2022-08-22T18:49:27.013Z,101474.25
2022-08-22T18:49:56.985Z,101476.44
2022-08-22T18:50:26.970Z,101478.25
2022-08-22T18:50:56.968Z,101475.59
2022-08-22T18:51:26.943Z,101474.62
2022-08-22T18:51:56.919Z,101476.25
2022-08-22T18:52:26.912Z,101474.62
2022-08-22T18:52:57.818Z,101477.09
2022-08-22T18:53:27.963Z,101477.77
2022-08-22T18:53:57.959Z,101474.11
2022-08-22T18:54:27.938Z,101481.75
2022-08-22T18:54:57.938Z,101475.29
2022-08-22T18:55:27.948Z,101479.94
2022-08-22T18:55:57.951Z,101478.77
2022-08-22T18:56:27.944Z,101480.95
2022-08-22T18:56:57.920Z,101481.78
2022-08-22T18:57:27.897Z,101484.77
2022-08-22T18:57:58.146Z,101485.94
2022-08-22T18:58:28.233Z,101488.40
2022-08-22T18:59:05.503Z,101480.12
2022-08-22T18:59:33.143Z,101487.57
2022-08-22T19:00:03.116Z,101487.43
2022-08-22T19:00:33.100Z,101484.27
2022-08-22T19:01:03.255Z,101486.42
2022-08-22T19:01:42.201Z,101485.96
2022-08-22T19:02:08.218Z,101488.62
2022-08-22T19:02:38.208Z,101487.14
2022-08-22T19:03:08.193Z,101489.45
2022-08-22T19:03:38.174Z,101491.77
2022-08-22T19:04:08.148Z,101491.11
2022-08-22T19:04:38.135Z,101489.14
2022-08-22T19:05:08.135Z,101489.30
2022-08-22T19:05:38.115Z,101492.11
2022-08-22T19:06:08.112Z,101492.12
2022-08-22T19:06:38.096Z,101490.77
2022-08-22T19:07:08.077Z,101492.29
2022-08-22T19:07:38.539Z,101484.31
2022-08-22T19:08:08.520Z,101489.97
2022-08-22T19:08:38.503Z,101490.95
2022-08-22T19:09:08.503Z,101489.52
2022-08-22T19:09:38.491Z,101490.16
2022-08-22T19:10:08.481Z,101488.34
2022-08-22T19:10:38.466Z,101485.05
2022-08-22T19:11:08.454Z,101489.55
2022-08-22T19:11:38.449Z,101489.88
2022-08-22T19:12:08.428Z,101485.91
2022-08-22T19:12:38.430Z,101487.72
2022-08-22T19:13:09.012Z,101487.89
2022-08-22T19:13:39.084Z,101486.27
2022-08-22T19:14:09.069Z,101488.89
2022-08-22T19:14:39.050Z,101487.73
2022-08-22T19:15:09.042Z,101482.26
2022-08-22T19:15:39.053Z,101485.09
2022-08-22T19:16:09.045Z,101483.77
2022-08-22T19:16:39.050Z,101487.92
2022-08-22T19:17:11.872Z,101487.92
2022-08-22T19:17:43.876Z,101486.94
2022-08-22T19:18:18.799Z,101488.92
2022-08-22T19:18:48.787Z,101492.26
2022-08-22T19:19:18.763Z,101486.31
2022-08-22T19:19:48.767Z,101486.29
2022-08-22T19:20:18.763Z,101486.27
2022-08-22T19:20:48.739Z,101486.12
2022-08-22T19:21:18.721Z,101483.33
2022-08-22T19:21:48.704Z,101487.45
2022-08-22T19:22:18.697Z,101483.16
2022-08-22T19:22:51.071Z,101484.14
2022-08-22T19:23:21.337Z,101490.61
2022-08-22T19:23:51.323Z,101488.95
2022-08-22T19:24:21.317Z,101489.48
2022-08-22T19:24:51.355Z,101486.17
2022-08-22T19:25:21.336Z,101486.34
2022-08-22T19:25:51.332Z,101487.66
2022-08-22T19:26:21.325Z,101487.87
2022-08-22T19:26:51.303Z,101490.50
2022-08-22T19:27:21.287Z,101490.33
2022-08-22T19:27:51.268Z,101489.17
2022-08-22T19:28:21.249Z,101491.67
2022-08-22T19:28:51.231Z,101487.38
2022-08-22T19:29:21.228Z,101491.02
2022-08-22T19:29:51.209Z,101491.64
2022-08-22T19:30:21.192Z,101492.48
2022-08-22T19:30:51.189Z,101493.81
2022-08-22T19:31:21.169Z,101494.66
2022-08-22T19:31:51.161Z,101491.36
2022-08-22T19:32:21.194Z,101494.19
2022-08-22T19:32:51.196Z,101494.02
2022-08-22T19:33:34.668Z,101491.02
2022-08-22T19:33:56.117Z,101492.68
2022-08-22T19:34:26.126Z,101492.68
2022-08-22T19:35:00.291Z,101494.17
2022-08-22T19:35:31.034Z,101489.75
2022-08-22T19:36:01.015Z,101487.24
2022-08-22T19:36:31.016Z,101489.92
2022-08-22T19:37:00.992Z,101490.53
2022-08-22T19:37:33.417Z,101490.41
2022-08-22T19:38:04.007Z,101491.09
2022-08-22T19:38:33.986Z,101490.77
2022-08-22T19:39:03.959Z,101494.05
2022-08-22T19:39:33.985Z,101486.76
2022-08-22T19:40:04.383Z,101491.90
2022-08-22T19:40:35.331Z,101489.09
2022-08-22T19:41:05.316Z,101492.27
2022-08-22T19:41:35.311Z,101491.75
2022-08-22T19:42:05.289Z,101490.09
2022-08-22T19:42:40.214Z,101493.39
2022-08-22T19:43:10.205Z,101490.09
2022-08-22T19:43:40.198Z,101489.92
2022-08-22T19:44:10.185Z,101490.25
2022-08-22T19:44:40.167Z,101491.25
2022-08-22T19:45:10.150Z,101488.77
2022-08-22T19:45:40.126Z,101492.09
2022-08-22T19:46:10.105Z,101487.81
2022-08-22T19:46:40.092Z,101492.27
2022-08-22T19:47:10.088Z,101486.98
2022-08-22T19:47:40.064Z,101488.14
2022-08-22T19:48:13.874Z,101489.95
2022-08-22T19:48:44.371Z,101488.64
2022-08-22T19:49:14.346Z,101485.66
2022-08-22T19:49:44.333Z,101489.66
2022-08-22T19:50:14.313Z,101492.81
2022-08-22T19:50:44.710Z,101492.12
2022-08-22T19:51:14.691Z,101488.50
2022-08-22T19:51:44.671Z,101491.47
2022-08-22T19:52:14.676Z,101493.46
2022-08-22T19:52:44.667Z,101492.61
2022-08-22T19:53:14.658Z,101488.17
2022-08-22T19:53:44.645Z,101491.64
2022-08-22T19:54:16.809Z,101492.13
2022-08-22T19:54:46.983Z,101492.47
2022-08-22T19:55:16.965Z,101491.64